Ana Sayfa
METAR-TAF:

METAR-TAF

Havaalanları :

Galesburg Municipal Airport

Galesburg, Illinois, Amerika Birleşik Devletleri

Enlem: 40-56-17N, Boylam: 090-25-52W, yükseklik: 233 m

Güncel hava durumu gözlemi

Rapor saat 22:15 UTC de 33 dakika önce yapıldı.
Rüzgar güneydan 16 kt ve 31 kt'a kadar ani rüzgarlar
Sıcaklık 30°C
Nem 52%
Basınç 1000 hPa
Görüş mesafesi: 16.1 km
Açık gökyüzü

METAR: KGBG 212215Z AUTO 18016G31KT 10SM CLR 30/19 A2952 RMK AO2 T03020191

Saat: 17:48 (22:48 UTC)


TAF: eksik

4.000'den fazla havaalanı için hava durumu gözlemleri ve tahminleri (METAR ve TAF raporları).

Kullanılabilir istasyonlar harita üzerinde sarı ve kırmızı noktalarla gösterilir.

İstasyonun adını görmek için fareyi noktanın üzerinde gezdirin.

Sonrasında hava gözlem ve tahminlerini görmek için tıklayın.

Haritayı değiştirmek için: yaklaştırmak için siyah artı işaretli yeşil düğmeye ve uzaklaştırmak için de eksi işaretli düğmeye hızla tıklayın; bitişik haritalar için yeşil okları kullanın.


METAR-TAF: